EGGW Airport Information

Runway Information
Runway 08 Length 7086 ft width 151 ft
Elevation 515 ft Threshold 0 ft Heading 74
Runway 26 Length 7086 ft Width 151 ft
Elevation 508 ft Threshold 279 ft Heading 254
Airport Frequencies
Type APP Name APP Frequency 129.55 MHZ
Type ATIS Name ATIS Frequency 120.575 MHZ
Type GND Name GND Frequency 121.75 MHZ
Type TWR Name TWR Frequency 132.55 MHZ
Airport Navaids
Airport Weather Information & NOTAM
ADDS - METARS form results

(2106 UTC 26 March 2019)
Data provider http://aviationweather.gov/metar/data/
 
METAR text: EGGW 262050Z AUTO VRB02KT 9999 FEW044 07/02 Q1033
Conditions at: EGGW (LUTON AIRPORT , GB) observed 2050 UTC 26 March 2019
Temperature: 7.0°C (45°F)
Dewpoint: 2.0°C (36°F) [RH = 70%]
Pressure (altimeter): 30.50 inches Hg (1033.0 mb)
Winds: variable direction winds at 2 MPH (2 knots; 1.0 m/s)
Visibility: 6 or more miles (10+ km)
Ceiling: at least 12,000 feet AGL
Clouds: few clouds at 4400 feet AGL
Weather: no significant weather observed at this time

METAR text: EGGW 262020Z VRB02KT 9999 BKN044 07/02 Q1033
Conditions at: EGGW (LUTON AIRPORT , GB) observed 2020 UTC 26 March 2019
Temperature: 7.0°C (45°F)
Dewpoint: 2.0°C (36°F) [RH = 70%]
Pressure (altimeter): 30.50 inches Hg (1033.0 mb)
Winds: variable direction winds at 2 MPH (2 knots; 1.0 m/s)
Visibility: 6 or more miles (10+ km)
Ceiling: 4400 feet AGL
Clouds: broken clouds at 4400 feet AGL
Weather: no significant weather observed at this time

Forecast for: EGGW (LUTON AIRPORT , GB)
Text: TAF EGGW 261656Z 2618/2718 34006KT 9999 SCT040
Forecast period: 1800 UTC 26 March 2019 to 1800 UTC 27 March 2019
Forecast type: FROM: standard forecast or significant change
Winds: from the NNW (340 degrees) at 7 MPH (6 knots; 3.1 m/s)
Visibility: 6 or more miles 10+ km)
Ceiling: at least 12,000 feet AGL
Clouds: scattered clouds at 4000 feet AGL
Weather: no significant weather forecast for this period
Text: PROB30 2704/2709 8000 BKN014
Forecast period: 0400 to 0900 UTC 27 March 2019
Forecast type: PROBABLE: 30 percent likelihood of the following during this time
Visibility: 5 miles (8 km)
Ceiling: 1400 feet AGL
Clouds: broken clouds at 1400 feet AGL
Weather: no significant weather forecast for this period